createdAt,value
2022-07-26T00:00:51.073Z,4.00
2022-07-26T00:01:51.088Z,3.50
2022-07-26T00:02:51.058Z,4.10
2022-07-26T00:03:51.032Z,5.10
2022-07-26T00:04:51.001Z,3.10
2022-07-26T00:05:51.011Z,4.40
2022-07-26T00:06:50.990Z,2.20
2022-07-26T00:07:51.021Z,5.20
2022-07-26T00:08:51.060Z,3.00
2022-07-26T00:09:50.974Z,3.30
2022-07-26T00:10:50.971Z,4.20
2022-07-26T00:11:50.941Z,4.80
2022-07-26T00:12:51.080Z,4.20
2022-07-26T00:13:51.167Z,3.90
2022-07-26T00:14:50.940Z,3.20
2022-07-26T00:15:50.910Z,3.90
2022-07-26T00:16:50.985Z,5.00
2022-07-26T00:17:50.918Z,3.80
2022-07-26T00:18:50.940Z,6.40
2022-07-26T00:19:50.916Z,4.50
2022-07-26T00:20:50.898Z,5.40
2022-07-26T00:21:50.983Z,4.70
2022-07-26T00:22:51.058Z,3.70
2022-07-26T00:23:50.928Z,4.70
2022-07-26T00:24:50.920Z,5.20
2022-07-26T00:25:50.858Z,4.50
2022-07-26T00:26:51.179Z,6.30
2022-07-26T00:27:50.889Z,4.10
2022-07-26T00:28:50.951Z,3.80
2022-07-26T00:29:50.849Z,3.20
2022-07-26T00:30:50.829Z,4.60
2022-07-26T00:31:50.867Z,3.20
2022-07-26T00:32:50.838Z,4.00
2022-07-26T00:33:50.857Z,5.60
2022-07-26T00:34:50.799Z,5.00
2022-07-26T00:35:51.559Z,4.20
2022-07-26T00:36:50.987Z,3.90
2022-07-26T00:37:51.420Z,4.40
2022-07-26T00:38:50.788Z,2.40
2022-07-26T00:39:50.750Z,4.00
2022-07-26T00:40:50.768Z,4.90
2022-07-26T00:41:51.649Z,5.70
2022-07-26T00:42:51.218Z,7.50
2022-07-26T00:43:51.528Z,4.60
2022-07-26T00:44:50.720Z,5.80
2022-07-26T00:45:50.769Z,5.50
2022-07-26T00:46:50.729Z,4.20
2022-07-26T00:47:50.707Z,5.70
2022-07-26T00:48:50.909Z,4.60
2022-07-26T00:49:50.680Z,5.40
2022-07-26T00:50:50.879Z,3.40
2022-07-26T00:51:50.687Z,6.10
2022-07-26T00:52:50.877Z,5.50
2022-07-26T00:53:51.167Z,5.30
2022-07-26T00:54:50.677Z,6.30
2022-07-26T00:55:50.648Z,5.30
2022-07-26T00:56:54.832Z,5.70
2022-07-26T00:57:50.628Z,5.40
2022-07-26T00:58:50.638Z,5.90
2022-07-26T00:59:50.636Z,4.50
2022-07-26T01:00:50.652Z,6.10
2022-07-26T01:01:50.721Z,5.70
2022-07-26T01:02:50.626Z,6.90
2022-07-26T01:03:50.593Z,6.30
2022-07-26T01:04:50.607Z,4.80
2022-07-26T01:05:50.567Z,7.10
2022-07-26T01:06:50.587Z,5.00
2022-07-26T01:07:51.025Z,5.00
2022-07-26T01:08:50.556Z,6.00
2022-07-26T01:09:50.564Z,5.10
2022-07-26T01:10:50.547Z,7.10
2022-07-26T01:11:50.546Z,4.10
2022-07-26T01:12:50.536Z,7.60
2022-07-26T01:13:50.523Z,6.80
2022-07-26T01:14:50.576Z,5.20
2022-07-26T01:15:50.576Z,4.40
2022-07-26T01:16:50.505Z,4.60
2022-07-26T01:17:50.856Z,5.40
2022-07-26T01:18:50.765Z,6.10
2022-07-26T01:19:50.524Z,5.30
2022-07-26T01:20:50.476Z,6.00
2022-07-26T01:21:50.465Z,6.70
2022-07-26T01:22:50.464Z,7.10
2022-07-26T01:23:50.457Z,5.80
2022-07-26T01:24:50.477Z,6.90
2022-07-26T01:25:50.445Z,6.30
2022-07-26T01:26:50.445Z,6.20
2022-07-26T01:27:50.426Z,4.30
2022-07-26T01:28:50.449Z,6.10
2022-07-26T01:29:50.435Z,5.70
2022-07-26T01:30:50.464Z,7.30
2022-07-26T01:31:50.472Z,3.60
2022-07-26T01:32:50.424Z,5.30
2022-07-26T01:33:50.384Z,7.70
2022-07-26T01:34:50.404Z,4.90
2022-07-26T01:35:50.435Z,6.70
2022-07-26T01:36:50.745Z,4.40
2022-07-26T01:37:50.403Z,6.20
2022-07-26T01:38:50.366Z,5.50
2022-07-26T01:39:50.344Z,4.60
2022-07-26T01:40:50.514Z,5.40
2022-07-26T01:41:50.333Z,3.90
2022-07-26T01:42:50.324Z,5.90
2022-07-26T01:43:50.335Z,5.30
2022-07-26T01:44:51.102Z,4.60
2022-07-26T01:45:50.416Z,4.90
2022-07-26T01:46:50.305Z,6.60
2022-07-26T01:47:50.295Z,6.90
2022-07-26T01:48:50.347Z,4.30
2022-07-26T01:49:50.285Z,5.30
2022-07-26T01:50:50.552Z,4.50
2022-07-26T01:51:50.603Z,4.60
2022-07-26T01:52:50.272Z,4.40
2022-07-26T01:53:50.263Z,4.50
2022-07-26T01:54:50.805Z,6.10
2022-07-26T01:55:50.448Z,4.60
2022-07-26T01:56:50.239Z,5.60
2022-07-26T01:57:50.234Z,4.50
2022-07-26T01:58:50.246Z,5.50
2022-07-26T01:59:50.339Z,3.50
2022-07-26T02:00:50.232Z,5.40
2022-07-26T02:01:50.333Z,4.60
2022-07-26T02:02:50.294Z,3.80
2022-07-26T02:03:50.193Z,6.00
2022-07-26T02:04:50.582Z,5.30
2022-07-26T02:05:50.261Z,3.20
2022-07-26T02:06:50.172Z,3.70
2022-07-26T02:07:50.162Z,4.40
2022-07-26T02:08:50.524Z,7.20
2022-07-26T02:09:50.822Z,5.20
2022-07-26T02:10:50.361Z,4.90
2022-07-26T02:11:50.141Z,5.60
2022-07-26T02:12:50.130Z,5.80
2022-07-26T02:13:53.200Z,4.20
2022-07-26T02:14:50.112Z,6.10
2022-07-26T02:15:50.165Z,4.70
2022-07-26T02:16:50.100Z,5.30
2022-07-26T02:17:50.092Z,5.00
2022-07-26T02:18:50.092Z,7.30
2022-07-26T02:19:50.081Z,4.40
2022-07-26T02:20:50.099Z,4.70
2022-07-26T02:21:50.070Z,3.50
2022-07-26T02:22:50.066Z,5.50
2022-07-26T02:23:50.066Z,6.00
2022-07-26T02:24:50.250Z,5.60
2022-07-26T02:25:50.059Z,5.20
2022-07-26T02:26:50.056Z,6.90
2022-07-26T02:27:50.027Z,3.60
2022-07-26T02:28:50.022Z,5.40
2022-07-26T02:29:50.111Z,5.90
2022-07-26T02:30:50.068Z,6.80
2022-07-26T02:31:50.086Z,8.20
2022-07-26T02:32:49.991Z,5.40
2022-07-26T02:33:50.000Z,7.30
2022-07-26T02:34:50.119Z,3.40
2022-07-26T02:35:50.006Z,4.10
2022-07-26T02:36:49.961Z,4.70
2022-07-26T02:37:49.990Z,5.80
2022-07-26T02:38:49.980Z,7.60
2022-07-26T02:39:49.950Z,5.00
2022-07-26T02:40:49.958Z,6.80
2022-07-26T02:41:49.938Z,7.40
2022-07-26T02:42:49.938Z,7.60
2022-07-26T02:43:49.930Z,3.80
2022-07-26T02:44:49.938Z,5.80
2022-07-26T02:46:00.911Z,7.40
2022-07-26T02:46:49.934Z,7.20
2022-07-26T02:47:49.917Z,5.40
2022-07-26T02:48:49.942Z,7.90
2022-07-26T02:49:49.890Z,4.70
2022-07-26T02:50:49.989Z,5.80
2022-07-26T02:51:49.868Z,6.60
2022-07-26T02:52:49.854Z,5.90
2022-07-26T02:53:49.863Z,5.30
2022-07-26T02:54:49.839Z,4.40
2022-07-26T02:55:49.878Z,6.90
2022-07-26T02:56:49.859Z,6.40
2022-07-26T02:57:50.178Z,5.00
2022-07-26T02:58:49.847Z,5.90
2022-07-26T02:59:49.858Z,7.70
2022-07-26T03:00:50.278Z,4.90
2022-07-26T03:01:49.940Z,6.50
2022-07-26T03:02:49.848Z,6.70
2022-07-26T03:03:50.987Z,5.80
2022-07-26T03:04:50.061Z,8.10
2022-07-26T03:05:49.808Z,6.00
2022-07-26T03:06:49.798Z,5.90
2022-07-26T03:07:50.067Z,8.60
2022-07-26T03:08:49.757Z,8.00
2022-07-26T03:09:49.777Z,7.50
2022-07-26T03:10:49.747Z,9.10
2022-07-26T03:11:49.779Z,7.70
2022-07-26T03:12:49.737Z,6.50
2022-07-26T03:13:49.967Z,9.20
2022-07-26T03:14:49.758Z,7.40
2022-07-26T03:15:49.791Z,5.30
2022-07-26T03:16:49.706Z,9.10
2022-07-26T03:17:49.706Z,6.90
2022-07-26T03:18:49.725Z,6.70
2022-07-26T03:19:50.256Z,8.30
2022-07-26T03:20:49.727Z,5.80
2022-07-26T03:21:49.697Z,9.00
2022-07-26T03:22:49.672Z,8.30
2022-07-26T03:23:49.698Z,8.20
2022-07-26T03:24:49.755Z,7.40
2022-07-26T03:25:49.818Z,8.60
2022-07-26T03:26:49.666Z,7.30
2022-07-26T03:27:49.658Z,8.60
2022-07-26T03:28:49.636Z,6.80
2022-07-26T03:29:49.746Z,7.40
2022-07-26T03:30:50.085Z,7.80
2022-07-26T03:31:49.666Z,6.70
2022-07-26T03:32:49.606Z,7.90
2022-07-26T03:33:49.826Z,7.40
2022-07-26T03:34:49.765Z,8.20
2022-07-26T03:35:49.576Z,9.60
2022-07-26T03:36:49.674Z,7.70
2022-07-26T03:37:49.565Z,6.70
2022-07-26T03:38:49.585Z,6.70
2022-07-26T03:39:50.048Z,8.30
2022-07-26T03:40:49.536Z,7.00
2022-07-26T03:41:49.562Z,9.30
2022-07-26T03:42:49.515Z,7.70
2022-07-26T03:43:49.649Z,6.80
2022-07-26T03:44:49.514Z,8.90
2022-07-26T03:45:49.537Z,7.10
2022-07-26T03:46:49.582Z,6.80
2022-07-26T03:47:49.540Z,7.40
2022-07-26T03:48:49.527Z,9.90
2022-07-26T03:49:49.487Z,8.80
2022-07-26T03:50:49.493Z,9.00
2022-07-26T03:51:49.563Z,7.70
2022-07-26T03:52:49.472Z,7.90
2022-07-26T03:53:49.493Z,8.00
2022-07-26T03:54:49.482Z,7.30
2022-07-26T03:55:49.444Z,7.80
2022-07-26T03:56:49.456Z,6.60
2022-07-26T03:57:49.453Z,11.30
2022-07-26T03:58:49.461Z,8.40
2022-07-26T03:59:49.444Z,7.60
2022-07-26T04:00:49.486Z,7.50
2022-07-26T04:01:49.493Z,6.70
2022-07-26T04:02:49.504Z,8.20
2022-07-26T04:03:49.543Z,9.30
2022-07-26T04:04:49.423Z,8.60
2022-07-26T04:05:50.344Z,9.40
2022-07-26T04:06:49.422Z,12.10
2022-07-26T04:07:53.154Z,7.50
2022-07-26T04:08:49.489Z,8.60
2022-07-26T04:09:49.483Z,9.50
2022-07-26T04:10:49.405Z,6.50
2022-07-26T04:11:49.442Z,7.80
2022-07-26T04:12:49.425Z,8.00
2022-07-26T04:13:49.412Z,7.30
2022-07-26T04:14:49.401Z,8.00
2022-07-26T04:15:49.482Z,11.20
2022-07-26T04:16:49.416Z,7.60
2022-07-26T04:17:49.347Z,8.40
2022-07-26T04:18:49.451Z,7.90
2022-07-26T04:19:49.418Z,9.00
2022-07-26T04:20:49.279Z,9.60
2022-07-26T04:21:49.272Z,8.10
2022-07-26T04:22:49.293Z,7.20
2022-07-26T04:23:51.290Z,7.50
2022-07-26T04:24:49.282Z,8.90
2022-07-26T04:25:49.315Z,8.80
2022-07-26T04:26:49.220Z,9.50
2022-07-26T04:27:49.461Z,8.70
2022-07-26T04:28:49.213Z,8.70
2022-07-26T04:29:49.211Z,10.00
2022-07-26T04:30:49.505Z,10.20
2022-07-26T04:31:49.189Z,8.90
2022-07-26T04:32:49.200Z,7.70
2022-07-26T04:33:49.180Z,9.80
2022-07-26T04:34:49.462Z,7.80
2022-07-26T04:35:49.160Z,9.70
2022-07-26T04:36:49.459Z,7.90
2022-07-26T04:37:49.189Z,7.30
2022-07-26T04:38:49.156Z,7.70
2022-07-26T04:39:53.054Z,8.80
2022-07-26T04:40:49.138Z,9.30
2022-07-26T04:41:49.196Z,9.40
2022-07-26T04:42:49.438Z,7.20
2022-07-26T04:43:49.138Z,9.40
2022-07-26T04:44:49.107Z,11.70
2022-07-26T04:45:49.180Z,8.20
2022-07-26T04:46:49.448Z,7.40
2022-07-26T04:47:49.201Z,7.60
2022-07-26T04:48:49.145Z,6.00
2022-07-26T04:49:49.388Z,7.60
2022-07-26T04:50:49.079Z,8.90
2022-07-26T04:51:49.058Z,7.70
2022-07-26T04:52:49.050Z,9.30
2022-07-26T04:53:49.097Z,7.00
2022-07-26T04:54:49.430Z,7.90
2022-07-26T04:55:49.477Z,7.20
2022-07-26T04:56:49.438Z,8.50
2022-07-26T04:57:49.036Z,11.60
2022-07-26T04:58:49.078Z,10.60
2022-07-26T05:00:03.385Z,9.30
2022-07-26T05:01:49.084Z,8.70
2022-07-26T05:02:49.010Z,6.70
2022-07-26T05:03:48.999Z,8.40
2022-07-26T05:04:48.977Z,9.90
2022-07-26T05:05:48.966Z,9.40
2022-07-26T05:06:48.970Z,8.90
2022-07-26T05:07:48.952Z,8.20
2022-07-26T05:08:49.145Z,8.20
2022-07-26T05:09:49.351Z,8.20
2022-07-26T05:10:54.928Z,9.90
2022-07-26T05:11:48.928Z,6.80
2022-07-26T05:12:48.919Z,8.70
2022-07-26T05:13:48.926Z,6.20
2022-07-26T05:14:49.516Z,9.70
2022-07-26T05:15:48.897Z,7.40
2022-07-26T05:16:48.935Z,9.20
2022-07-26T05:17:48.880Z,8.10
2022-07-26T05:18:49.640Z,8.50
2022-07-26T05:19:49.359Z,6.30
2022-07-26T05:20:48.875Z,7.30
2022-07-26T05:21:48.855Z,7.40
2022-07-26T05:22:48.845Z,8.20
2022-07-26T05:23:48.892Z,8.00
2022-07-26T05:24:48.844Z,9.30
2022-07-26T05:25:48.837Z,10.40
2022-07-26T05:26:48.819Z,7.40
2022-07-26T05:27:48.845Z,8.80
2022-07-26T05:28:48.807Z,11.00
2022-07-26T05:29:49.013Z,7.20
2022-07-26T05:30:48.830Z,8.00
2022-07-26T05:31:48.794Z,6.80
2022-07-26T05:32:49.105Z,7.70
2022-07-26T05:33:48.915Z,9.00
2022-07-26T05:34:48.816Z,9.10
2022-07-26T05:35:48.820Z,7.60
2022-07-26T05:36:48.803Z,9.10
2022-07-26T05:37:48.792Z,10.50
2022-07-26T05:38:49.005Z,10.60
2022-07-26T05:39:48.953Z,7.30
2022-07-26T05:40:50.919Z,8.20
2022-07-26T05:41:49.143Z,9.10
2022-07-26T05:42:48.802Z,7.20
2022-07-26T05:43:48.843Z,9.60
2022-07-26T05:44:49.331Z,6.60
2022-07-26T05:45:48.742Z,9.40
2022-07-26T05:46:48.963Z,9.90
2022-07-26T05:47:48.703Z,7.70
2022-07-26T05:48:49.476Z,9.30
2022-07-26T05:49:48.693Z,10.10
2022-07-26T05:50:49.303Z,7.60
2022-07-26T05:51:48.683Z,9.40
2022-07-26T05:52:48.721Z,10.20
2022-07-26T05:53:48.658Z,9.50
2022-07-26T05:54:48.852Z,11.10
2022-07-26T05:55:48.823Z,8.60
2022-07-26T05:56:48.932Z,9.50
2022-07-26T05:57:49.689Z,10.00
2022-07-26T05:58:49.064Z,11.30
2022-07-26T05:59:49.109Z,11.00
2022-07-26T06:00:48.748Z,13.00
2022-07-26T06:01:48.583Z,11.40
2022-07-26T06:02:49.327Z,11.90
2022-07-26T06:03:48.826Z,11.00
2022-07-26T06:04:48.619Z,12.10
2022-07-26T06:05:48.551Z,10.20
2022-07-26T06:06:48.591Z,11.00
2022-07-26T06:07:49.201Z,11.30
2022-07-26T06:08:48.542Z,10.40
2022-07-26T06:09:48.551Z,13.80
2022-07-26T06:10:48.549Z,12.80
2022-07-26T06:11:48.522Z,11.10
2022-07-26T06:12:48.567Z,11.10
2022-07-26T06:13:51.420Z,11.50
2022-07-26T06:14:48.739Z,11.70
2022-07-26T06:15:48.767Z,13.50
2022-07-26T06:16:48.675Z,13.30
2022-07-26T06:17:48.599Z,12.00
2022-07-26T06:18:48.481Z,12.30
2022-07-26T06:19:48.517Z,10.40
2022-07-26T06:20:48.458Z,11.80
2022-07-26T06:21:48.460Z,11.00
2022-07-26T06:22:48.438Z,11.60
2022-07-26T06:23:48.512Z,10.90
2022-07-26T06:24:48.429Z,12.60
2022-07-26T06:25:48.418Z,11.70
2022-07-26T06:26:49.249Z,12.30
2022-07-26T06:27:48.399Z,14.20
2022-07-26T06:28:48.409Z,11.70
2022-07-26T06:29:48.473Z,9.90
2022-07-26T06:30:48.388Z,14.10
2022-07-26T06:31:48.438Z,11.80
2022-07-26T06:32:48.367Z,12.80
2022-07-26T06:33:48.378Z,11.30
2022-07-26T06:34:48.381Z,10.00
2022-07-26T06:35:48.352Z,12.70
2022-07-26T06:36:48.349Z,9.70
2022-07-26T06:37:48.369Z,13.60
2022-07-26T06:38:48.859Z,11.30
2022-07-26T06:39:48.337Z,11.30
2022-07-26T06:40:48.318Z,11.30
2022-07-26T06:41:48.319Z,12.40
2022-07-26T06:42:48.301Z,12.20
2022-07-26T06:43:48.286Z,11.20
2022-07-26T06:44:48.347Z,10.80
2022-07-26T06:45:48.330Z,8.90
2022-07-26T06:46:48.305Z,9.80
2022-07-26T06:47:48.268Z,11.00
2022-07-26T06:48:52.981Z,8.60
2022-07-26T06:49:48.266Z,9.70
2022-07-26T06:50:48.247Z,12.50
2022-07-26T06:51:48.244Z,13.70
2022-07-26T06:52:48.235Z,9.90
2022-07-26T06:53:48.250Z,11.20
2022-07-26T06:54:48.265Z,8.70
2022-07-26T06:55:48.216Z,12.10
2022-07-26T06:56:48.266Z,12.00
2022-07-26T06:57:50.290Z,11.20
2022-07-26T06:58:48.267Z,12.70
2022-07-26T06:59:48.204Z,12.20
2022-07-26T07:00:48.532Z,12.20
2022-07-26T07:01:57.496Z,11.20
2022-07-26T07:02:48.174Z,11.10
2022-07-26T07:03:48.154Z,12.40
2022-07-26T07:04:48.274Z,10.30
2022-07-26T07:05:50.194Z,13.10
2022-07-26T07:06:48.155Z,15.50
2022-07-26T07:07:48.155Z,11.40
2022-07-26T07:08:48.125Z,17.60
2022-07-26T07:09:48.124Z,14.80
2022-07-26T07:10:48.138Z,14.20
2022-07-26T07:11:48.419Z,14.00
2022-07-26T07:12:48.111Z,14.20
2022-07-26T07:13:48.084Z,14.30
2022-07-26T07:14:48.104Z,15.00
2022-07-26T07:15:48.099Z,13.30
2022-07-26T07:16:48.158Z,14.90
2022-07-26T07:17:48.094Z,14.80
2022-07-26T07:18:48.080Z,13.10
2022-07-26T07:19:48.057Z,14.20
2022-07-26T07:20:48.077Z,11.80
2022-07-26T07:21:48.102Z,14.10
2022-07-26T07:22:48.049Z,13.20
2022-07-26T07:23:48.033Z,15.70
2022-07-26T07:24:48.026Z,15.90
2022-07-26T07:25:48.041Z,13.70
2022-07-26T07:26:48.003Z,15.00
2022-07-26T07:27:47.994Z,13.60
2022-07-26T07:28:48.611Z,12.00
2022-07-26T07:29:47.992Z,13.10
2022-07-26T07:30:48.004Z,17.50
2022-07-26T07:31:49.437Z,13.70
2022-07-26T07:32:47.963Z,16.50
2022-07-26T07:33:53.550Z,17.20
2022-07-26T07:34:47.987Z,13.50
2022-07-26T07:35:47.953Z,14.30
2022-07-26T07:36:47.952Z,13.90
2022-07-26T07:37:53.474Z,16.60
2022-07-26T07:38:47.922Z,15.10
2022-07-26T07:39:48.844Z,17.30
2022-07-26T07:40:47.918Z,12.00
2022-07-26T07:41:47.893Z,16.40
2022-07-26T07:42:47.892Z,15.70
2022-07-26T07:43:47.880Z,14.70
2022-07-26T07:44:48.433Z,14.70
2022-07-26T07:45:48.191Z,13.90
2022-07-26T07:46:48.246Z,16.10
2022-07-26T07:47:48.251Z,15.20
2022-07-26T07:48:48.146Z,16.00
2022-07-26T07:49:48.611Z,17.90
2022-07-26T07:50:48.044Z,16.10
2022-07-26T07:51:47.972Z,15.90
2022-07-26T07:52:48.011Z,15.00
2022-07-26T07:53:56.808Z,16.00
2022-07-26T07:54:48.013Z,16.70
2022-07-26T07:55:48.509Z,16.30
2022-07-26T07:56:48.012Z,18.00
2022-07-26T07:57:48.518Z,18.20
2022-07-26T07:58:47.844Z,15.90
2022-07-26T07:59:47.849Z,15.30
2022-07-26T08:00:48.154Z,13.80
2022-07-26T08:01:47.866Z,16.20
2022-07-26T08:02:47.770Z,14.50
2022-07-26T08:03:50.537Z,16.90
2022-07-26T08:04:47.838Z,16.20
2022-07-26T08:05:49.448Z,13.60
2022-07-26T08:06:51.127Z,15.70
2022-07-26T08:07:47.809Z,18.60
2022-07-26T08:08:48.526Z,15.70
2022-07-26T08:09:47.730Z,14.50
2022-07-26T08:10:51.502Z,14.20
2022-07-26T08:11:50.609Z,12.50
2022-07-26T08:12:47.698Z,12.30
2022-07-26T08:13:48.207Z,13.70
2022-07-26T08:14:47.680Z,18.00
2022-07-26T08:15:49.270Z,14.30
2022-07-26T08:16:47.800Z,13.20
2022-07-26T08:17:53.920Z,17.50
2022-07-26T08:18:57.034Z,15.40
2022-07-26T08:19:47.850Z,15.60
2022-07-26T08:20:47.662Z,15.80
2022-07-26T08:21:47.628Z,15.40
2022-07-26T08:22:47.631Z,16.50
2022-07-26T08:23:47.698Z,14.50
2022-07-26T08:24:47.628Z,16.90
2022-07-26T08:25:55.991Z,16.40
2022-07-26T08:26:47.646Z,15.20
2022-07-26T08:28:00.465Z,16.40
2022-07-26T08:28:48.428Z,17.90
2022-07-26T08:29:47.716Z,14.80
2022-07-26T08:30:47.656Z,17.70
2022-07-26T08:31:47.924Z,13.30
2022-07-26T08:32:47.558Z,16.70
2022-07-26T08:33:47.559Z,18.30
2022-07-26T08:34:48.001Z,17.90
2022-07-26T08:35:48.057Z,17.70
2022-07-26T08:37:14.295Z,16.10
2022-07-26T08:37:47.537Z,16.30
2022-07-26T08:38:48.238Z,16.80
2022-07-26T08:39:47.512Z,20.30
2022-07-26T08:40:47.506Z,20.30
2022-07-26T08:41:47.540Z,17.50
2022-07-26T08:42:52.245Z,18.90
2022-07-26T08:43:52.866Z,18.00
2022-07-26T08:44:47.547Z,20.50
2022-07-26T08:45:47.467Z,18.00
2022-07-26T08:46:47.523Z,22.00
2022-07-26T08:48:15.143Z,19.50
2022-07-26T08:48:47.499Z,19.30
2022-07-26T08:49:47.518Z,22.10
2022-07-26T08:50:47.448Z,20.60
2022-07-26T08:51:47.447Z,20.90
2022-07-26T08:52:47.427Z,21.60
2022-07-26T08:53:47.500Z,19.60
2022-07-26T08:54:47.415Z,19.40
2022-07-26T08:56:06.306Z,20.20
2022-07-26T08:56:47.429Z,18.50
2022-07-26T08:57:47.447Z,20.70
2022-07-26T08:58:47.396Z,17.90
2022-07-26T08:59:47.390Z,20.10
2022-07-26T09:00:47.397Z,21.70
2022-07-26T09:01:47.389Z,19.70
2022-07-26T09:02:47.365Z,21.40
2022-07-26T09:03:47.403Z,20.10
2022-07-26T09:04:47.366Z,19.30
2022-07-26T09:05:47.349Z,15.50
2022-07-26T09:06:47.346Z,19.60
2022-07-26T09:07:47.326Z,18.30
2022-07-26T09:08:47.315Z,18.30
2022-07-26T09:09:47.322Z,18.00
2022-07-26T09:10:47.426Z,18.30
2022-07-26T09:11:48.356Z,17.30
2022-07-26T09:12:47.290Z,18.60
2022-07-26T09:13:47.276Z,16.20
2022-07-26T09:14:47.278Z,16.20
2022-07-26T09:15:47.362Z,19.00
2022-07-26T09:16:47.331Z,16.60
2022-07-26T09:17:47.257Z,15.90
2022-07-26T09:18:47.343Z,16.90
2022-07-26T09:19:47.255Z,15.70
2022-07-26T09:20:47.234Z,15.90
2022-07-26T09:21:47.295Z,16.00
2022-07-26T09:22:47.224Z,16.20
2022-07-26T09:23:47.215Z,16.30
2022-07-26T09:24:47.247Z,14.80
2022-07-26T09:25:47.194Z,13.90
2022-07-26T09:26:47.205Z,14.10
2022-07-26T09:27:47.174Z,17.20
2022-07-26T09:28:47.178Z,17.30
2022-07-26T09:29:47.357Z,15.50
2022-07-26T09:30:47.513Z,13.80
2022-07-26T09:31:47.226Z,14.30
2022-07-26T09:32:47.157Z,14.20
2022-07-26T09:33:47.736Z,10.70
2022-07-26T09:34:52.615Z,12.00
2022-07-26T09:35:51.354Z,12.40
2022-07-26T09:36:48.005Z,13.70
2022-07-26T09:37:47.635Z,13.00
2022-07-26T09:38:47.703Z,14.00
2022-07-26T09:39:47.971Z,13.80
2022-07-26T09:40:51.376Z,12.60
2022-07-26T09:41:49.366Z,14.20
2022-07-26T09:42:47.095Z,11.80
2022-07-26T09:43:51.690Z,12.00
2022-07-26T09:44:48.002Z,12.60
2022-07-26T09:45:47.056Z,11.50
2022-07-26T09:46:47.120Z,12.10
2022-07-26T09:47:47.074Z,13.40
2022-07-26T09:49:47.114Z,11.60
2022-07-26T09:50:47.062Z,11.10
2022-07-26T09:51:47.035Z,12.20
2022-07-26T09:52:47.035Z,13.00
2022-07-26T09:53:47.045Z,15.80
2022-07-26T09:54:47.086Z,12.90
2022-07-26T09:55:47.015Z,11.60
2022-07-26T09:56:46.985Z,12.50
2022-07-26T09:57:47.174Z,10.70
2022-07-26T09:58:46.981Z,12.10
2022-07-26T09:59:46.965Z,11.50
2022-07-26T10:00:46.983Z,12.20
2022-07-26T10:01:47.062Z,10.60
2022-07-26T10:02:47.008Z,11.60
2022-07-26T10:03:46.945Z,11.20
2022-07-26T10:04:46.933Z,9.40
2022-07-26T10:05:46.968Z,9.90
2022-07-26T10:06:46.946Z,11.90
2022-07-26T10:07:47.021Z,9.50
2022-07-26T10:08:46.914Z,10.10
2022-07-26T10:09:46.899Z,11.90
2022-07-26T10:10:46.904Z,14.20
2022-07-26T10:11:46.884Z,11.70
2022-07-26T10:12:46.903Z,11.10
2022-07-26T10:13:46.867Z,11.20
2022-07-26T10:14:46.912Z,13.00
2022-07-26T10:15:47.238Z,10.60
2022-07-26T10:16:46.844Z,11.50
2022-07-26T10:17:46.864Z,8.10
2022-07-26T10:18:46.833Z,9.90
2022-07-26T10:19:47.377Z,8.30
2022-07-26T10:20:46.867Z,9.90
2022-07-26T10:21:46.827Z,9.90
2022-07-26T10:22:46.827Z,10.60
2022-07-26T10:23:46.807Z,10.70
2022-07-26T10:24:47.255Z,8.70
2022-07-26T10:25:46.803Z,9.00
2022-07-26T10:26:46.782Z,5.90
2022-07-26T10:27:46.806Z,6.80
2022-07-26T10:28:46.794Z,5.90
2022-07-26T10:29:46.984Z,4.80
2022-07-26T10:30:46.765Z,3.80
2022-07-26T10:31:46.833Z,4.30
2022-07-26T10:32:46.786Z,5.10
2022-07-26T10:33:46.743Z,5.80
2022-07-26T10:34:46.743Z,3.00
2022-07-26T10:35:46.953Z,2.90
2022-07-26T10:36:46.743Z,3.90
2022-07-26T10:37:46.733Z,3.50
2022-07-26T10:38:46.702Z,3.90
2022-07-26T10:39:47.173Z,4.30
2022-07-26T10:40:46.701Z,5.50
2022-07-26T10:41:46.701Z,6.80
2022-07-26T10:42:46.681Z,3.30
2022-07-26T10:43:46.701Z,4.60
2022-07-26T10:44:46.791Z,4.20
2022-07-26T10:45:46.668Z,4.50
2022-07-26T10:46:46.752Z,4.40
2022-07-26T10:47:47.362Z,5.10
2022-07-26T10:48:47.243Z,3.50
2022-07-26T10:49:46.638Z,3.40
2022-07-26T10:50:46.629Z,3.90
2022-07-26T10:51:46.623Z,4.50
2022-07-26T10:52:46.611Z,3.80
2022-07-26T10:53:46.695Z,4.90
2022-07-26T10:54:46.605Z,3.10
2022-07-26T10:55:46.605Z,3.30
2022-07-26T10:56:46.593Z,4.70
2022-07-26T10:57:46.692Z,5.20
2022-07-26T10:58:46.792Z,3.00
2022-07-26T10:59:55.753Z,4.30
2022-07-26T11:00:46.561Z,4.40
2022-07-26T11:01:46.645Z,3.00
2022-07-26T11:02:46.605Z,3.10
2022-07-26T11:03:46.560Z,4.40
2022-07-26T11:04:46.641Z,3.10
2022-07-26T11:05:46.532Z,2.70
2022-07-26T11:06:46.532Z,3.30
2022-07-26T11:07:46.510Z,2.80
2022-07-26T11:08:48.301Z,3.50
2022-07-26T11:09:46.860Z,3.60
2022-07-26T11:10:46.824Z,4.20
2022-07-26T11:11:47.519Z,4.90
2022-07-26T11:12:46.545Z,3.90
2022-07-26T11:13:46.518Z,4.30
2022-07-26T11:14:48.553Z,3.20
2022-07-26T11:15:46.586Z,4.70
2022-07-26T11:16:46.512Z,4.50
2022-07-26T11:17:46.460Z,3.40
2022-07-26T11:18:46.783Z,3.00
2022-07-26T11:19:46.470Z,2.50
2022-07-26T11:20:46.462Z,5.30
2022-07-26T11:21:46.431Z,3.30
2022-07-26T11:22:46.419Z,3.10
2022-07-26T11:23:46.417Z,3.20
2022-07-26T11:24:47.062Z,5.00
2022-07-26T11:25:46.401Z,5.10
2022-07-26T11:26:47.448Z,2.90
2022-07-26T11:27:46.390Z,3.10
2022-07-26T11:28:46.401Z,3.50
2022-07-26T11:29:49.227Z,4.20
2022-07-26T11:30:46.411Z,5.40
2022-07-26T11:31:50.738Z,5.10
2022-07-26T11:32:46.339Z,5.20
2022-07-26T11:33:46.837Z,2.80
2022-07-26T11:34:47.183Z,5.00
2022-07-26T11:35:47.348Z,4.50
2022-07-26T11:36:46.345Z,4.60
2022-07-26T11:37:46.319Z,3.70
2022-07-26T11:38:46.438Z,4.10
2022-07-26T11:39:46.783Z,5.40
2022-07-26T11:40:46.321Z,7.40
2022-07-26T11:41:46.348Z,3.80
2022-07-26T11:42:46.280Z,4.70
2022-07-26T11:43:46.280Z,4.60
2022-07-26T11:44:46.292Z,3.90
2022-07-26T11:45:46.258Z,5.30
2022-07-26T11:46:46.351Z,4.90
2022-07-26T11:47:46.260Z,5.70
2022-07-26T11:48:46.447Z,4.10
2022-07-26T11:50:09.775Z,4.80
2022-07-26T11:50:46.237Z,6.80
2022-07-26T11:51:46.530Z,5.20
2022-07-26T11:52:46.589Z,4.30
2022-07-26T11:53:46.220Z,5.60
2022-07-26T11:54:46.349Z,4.70
2022-07-26T11:55:47.608Z,4.70
2022-07-26T11:56:46.208Z,7.30
2022-07-26T11:57:46.201Z,4.20
2022-07-26T11:58:46.442Z,4.90
2022-07-26T11:59:46.218Z,3.90
2022-07-26T12:00:46.217Z,6.20
2022-07-26T12:01:49.737Z,4.20
2022-07-26T12:02:46.157Z,2.70
2022-07-26T12:03:46.184Z,5.90
2022-07-26T12:04:46.282Z,4.60
2022-07-26T12:05:46.209Z,4.60
2022-07-26T12:06:46.119Z,3.90
2022-07-26T12:07:46.125Z,4.80
2022-07-26T12:08:47.016Z,6.00
2022-07-26T12:09:46.118Z,5.50
2022-07-26T12:10:46.101Z,5.90
2022-07-26T12:11:46.098Z,3.70
2022-07-26T12:12:46.079Z,6.20
2022-07-26T12:13:55.830Z,3.90
2022-07-26T12:14:46.209Z,8.90
2022-07-26T12:15:46.121Z,6.00
2022-07-26T12:16:46.059Z,6.60
2022-07-26T12:17:46.047Z,4.80
2022-07-26T12:18:46.039Z,4.60
2022-07-26T12:19:46.059Z,3.80
2022-07-26T12:20:46.021Z,5.70
2022-07-26T12:21:46.030Z,4.80
2022-07-26T12:22:46.009Z,6.60
2022-07-26T12:23:46.438Z,6.90
2022-07-26T12:24:46.448Z,5.30
2022-07-26T12:25:49.261Z,5.50
2022-07-26T12:26:45.993Z,6.80
2022-07-26T12:27:46.068Z,8.20
2022-07-26T12:28:45.998Z,6.40
2022-07-26T12:29:46.006Z,7.80
2022-07-26T12:30:46.007Z,7.40
2022-07-26T12:31:45.948Z,5.40
2022-07-26T12:32:45.955Z,5.00
2022-07-26T12:33:45.958Z,6.60
2022-07-26T12:34:45.975Z,7.40
2022-07-26T12:35:45.949Z,6.30
2022-07-26T12:36:45.931Z,8.10
2022-07-26T12:37:45.909Z,6.30
2022-07-26T12:38:47.803Z,6.40
2022-07-26T12:39:45.917Z,6.00
2022-07-26T12:40:45.926Z,5.90
2022-07-26T12:41:46.077Z,6.70
2022-07-26T12:42:45.877Z,6.30
2022-07-26T12:43:49.848Z,5.20
2022-07-26T12:44:45.886Z,5.40
2022-07-26T12:45:45.936Z,6.70
2022-07-26T12:46:45.909Z,7.20
2022-07-26T12:47:45.849Z,5.30
2022-07-26T12:48:46.022Z,4.90
2022-07-26T12:49:45.878Z,6.00
2022-07-26T12:50:45.841Z,6.10
2022-07-26T12:51:45.847Z,5.10
2022-07-26T12:52:45.857Z,6.40
2022-07-26T12:53:45.817Z,6.30
2022-07-26T12:54:45.827Z,5.80
2022-07-26T12:55:45.998Z,4.10
2022-07-26T12:56:48.659Z,4.00
2022-07-26T12:57:47.563Z,3.90
2022-07-26T12:58:45.778Z,4.60
2022-07-26T12:59:45.819Z,4.30
2022-07-26T13:00:45.755Z,6.00
2022-07-26T13:01:46.101Z,5.80
2022-07-26T13:02:45.755Z,4.50
2022-07-26T13:03:46.038Z,6.20
2022-07-26T13:04:46.481Z,5.50
2022-07-26T13:05:45.726Z,4.10
2022-07-26T13:06:45.736Z,4.40
2022-07-26T13:07:45.766Z,3.80
2022-07-26T13:08:46.625Z,2.90
2022-07-26T13:09:45.738Z,4.00
2022-07-26T13:10:45.687Z,3.80
2022-07-26T13:11:45.696Z,3.00